createdAt,value
2022-12-28T00:02:17.372Z,-0.30
2022-12-28T00:04:49.401Z,-0.30
2022-12-28T00:07:20.091Z,-0.30
2022-12-28T00:09:47.988Z,-0.20
2022-12-28T00:12:15.858Z,-0.20
2022-12-28T00:14:46.239Z,-0.20
2022-12-28T00:17:14.315Z,-0.30
2022-12-28T00:19:42.200Z,-0.30
2022-12-28T00:22:10.162Z,-0.20
2022-12-28T00:24:38.068Z,-0.20
2022-12-28T00:27:05.993Z,-0.30
2022-12-28T00:29:33.956Z,-0.30
2022-12-28T00:32:01.991Z,-0.40
2022-12-28T00:34:29.963Z,-0.40
2022-12-28T00:37:09.179Z,-0.50
2022-12-28T00:39:41.291Z,-0.50
2022-12-28T00:42:09.537Z,-0.40
2022-12-28T00:44:38.505Z,-0.40
2022-12-28T00:47:06.421Z,-0.30
2022-12-28T00:49:34.385Z,-0.40
2022-12-28T00:52:02.379Z,-0.30
2022-12-28T00:54:30.413Z,-0.30
2022-12-28T00:56:58.416Z,-0.30
2022-12-28T00:59:26.266Z,-0.40
2022-12-28T01:01:54.318Z,-0.30
2022-12-28T01:04:22.762Z,-0.30
2022-12-28T01:06:50.679Z,-0.30
2022-12-28T01:09:18.599Z,-0.20
2022-12-28T01:11:46.515Z,-0.20
2022-12-28T01:14:16.056Z,-0.20
2022-12-28T01:16:44.181Z,-0.20
2022-12-28T01:19:17.291Z,-0.20
2022-12-28T01:21:45.310Z,-0.10
2022-12-28T01:24:13.224Z,-0.10
2022-12-28T01:26:41.262Z,0.00
2022-12-28T01:29:09.329Z,0.00
2022-12-28T01:31:37.365Z,0.00
2022-12-28T01:34:12.593Z,0.00
2022-12-28T01:36:43.708Z,0.00
2022-12-28T01:39:12.208Z,0.00
2022-12-28T01:41:42.941Z,0.10
2022-12-28T01:44:13.571Z,0.10
2022-12-28T01:46:46.711Z,0.10
2022-12-28T01:49:20.875Z,0.10
2022-12-28T01:52:07.390Z,0.10
2022-12-28T01:54:43.719Z,0.10
2022-12-28T01:57:12.458Z,0.10
2022-12-28T01:59:44.816Z,0.10
2022-12-28T02:02:18.507Z,0.10
2022-12-28T02:04:50.558Z,0.20
2022-12-28T02:07:31.057Z,0.20
2022-12-28T02:10:42.475Z,0.20
2022-12-28T02:12:48.272Z,0.20
2022-12-28T02:15:22.782Z,0.30
2022-12-28T02:17:51.953Z,0.30
2022-12-28T02:20:20.521Z,0.30
2022-12-28T02:23:08.351Z,0.40
2022-12-28T02:25:48.473Z,0.40
2022-12-28T02:28:38.099Z,0.40
2022-12-28T02:31:45.906Z,0.40
2022-12-28T02:34:38.431Z,0.50
2022-12-28T02:37:28.444Z,0.40
2022-12-28T02:40:26.284Z,0.40
2022-12-28T02:42:55.988Z,0.40
2022-12-28T02:45:54.402Z,0.40
2022-12-28T02:48:41.468Z,0.30
2022-12-28T02:51:40.591Z,0.30
2022-12-28T02:54:45.945Z,0.30
2022-12-28T02:57:42.485Z,0.40
2022-12-28T03:00:16.868Z,0.40
2022-12-28T03:03:03.868Z,0.40
2022-12-28T03:06:17.494Z,0.40
2022-12-28T03:08:54.750Z,0.40
2022-12-28T03:11:31.758Z,0.40
2022-12-28T03:14:12.286Z,0.40
2022-12-28T03:17:02.878Z,0.40
2022-12-28T03:20:00.968Z,0.50
2022-12-28T03:22:50.504Z,0.50
2022-12-28T03:25:41.752Z,0.50
2022-12-28T03:28:32.822Z,0.50
2022-12-28T03:31:09.086Z,0.50
2022-12-28T03:33:47.700Z,0.50
2022-12-28T03:36:31.656Z,0.50
2022-12-28T03:39:21.696Z,0.60
2022-12-28T03:42:23.297Z,0.60
2022-12-28T03:44:57.700Z,0.60
2022-12-28T03:47:28.752Z,0.70
2022-12-28T03:49:56.912Z,0.70
2022-12-28T03:52:25.022Z,0.70
2022-12-28T03:54:53.315Z,0.80
2022-12-28T03:57:27.714Z,0.80
2022-12-28T04:00:00.308Z,0.80
2022-12-28T04:02:28.389Z,0.80
2022-12-28T04:04:56.354Z,0.80
2022-12-28T04:07:24.766Z,0.80
2022-12-28T04:09:52.697Z,0.80
2022-12-28T04:12:20.726Z,0.80
2022-12-28T04:15:07.783Z,0.80
2022-12-28T04:17:36.142Z,0.70
2022-12-28T04:20:04.903Z,0.70
2022-12-28T04:22:33.009Z,0.70
2022-12-28T04:25:00.912Z,0.60
2022-12-28T04:27:28.985Z,0.60
2022-12-28T04:30:02.797Z,0.50
2022-12-28T04:32:33.143Z,0.50
2022-12-28T04:35:02.348Z,0.50
2022-12-28T04:37:33.433Z,0.40
2022-12-28T04:40:01.394Z,0.50
2022-12-28T04:42:29.392Z,0.50
2022-12-28T04:44:57.337Z,0.40
2022-12-28T04:47:25.319Z,0.30
2022-12-28T04:49:53.371Z,0.40
2022-12-28T04:52:23.386Z,0.50
2022-12-28T04:54:51.309Z,0.60
2022-12-28T04:57:19.251Z,0.70
2022-12-28T04:59:47.204Z,0.80
2022-12-28T05:02:15.209Z,0.80
2022-12-28T05:04:43.181Z,0.90
2022-12-28T05:07:11.241Z,0.90
2022-12-28T05:09:39.168Z,1.00
2022-12-28T05:12:07.241Z,1.00
2022-12-28T05:14:37.175Z,1.10
2022-12-28T05:17:06.855Z,1.10
2022-12-28T05:19:36.171Z,1.20
2022-12-28T05:22:04.481Z,1.20
2022-12-28T05:24:32.698Z,1.20
2022-12-28T05:27:00.988Z,1.30
2022-12-28T05:29:29.091Z,1.30
2022-12-28T05:31:57.094Z,1.40
2022-12-28T05:34:25.168Z,1.40
2022-12-28T05:36:53.121Z,1.40
2022-12-28T05:39:21.031Z,1.50
2022-12-28T05:41:49.096Z,1.50
2022-12-28T05:44:17.129Z,1.50
2022-12-28T05:46:45.085Z,1.60
2022-12-28T05:49:13.025Z,1.60
2022-12-28T05:51:40.901Z,1.60
2022-12-28T05:54:08.892Z,1.60
2022-12-28T05:56:37.037Z,1.60
2022-12-28T05:59:07.513Z,1.70
2022-12-28T06:01:38.549Z,1.80
2022-12-28T06:04:09.251Z,1.80
2022-12-28T06:06:37.449Z,1.80
2022-12-28T06:09:06.022Z,1.80
2022-12-28T06:11:34.078Z,1.90
2022-12-28T06:14:03.788Z,1.90
2022-12-28T06:16:35.348Z,1.90
2022-12-28T06:19:09.920Z,1.90
2022-12-28T06:21:40.465Z,1.90
2022-12-28T06:24:11.582Z,1.90
2022-12-28T06:26:41.927Z,2.00
2022-12-28T06:29:11.380Z,2.00
2022-12-28T06:31:42.457Z,2.00
2022-12-28T06:34:13.995Z,2.00
2022-12-28T06:36:47.426Z,2.00
2022-12-28T06:39:16.239Z,2.00
2022-12-28T06:41:44.557Z,1.90
2022-12-28T06:44:14.702Z,2.00
2022-12-28T06:46:43.259Z,2.00
2022-12-28T06:49:11.471Z,2.00
2022-12-28T06:51:42.568Z,2.00
2022-12-28T06:54:12.018Z,2.00
2022-12-28T06:56:40.391Z,2.00
2022-12-28T06:59:08.956Z,2.00
2022-12-28T07:01:42.535Z,2.10
2022-12-28T07:04:11.578Z,2.10
2022-12-28T07:06:45.203Z,2.10
2022-12-28T07:09:17.305Z,2.10
2022-12-28T07:11:46.237Z,2.10
2022-12-28T07:14:14.373Z,2.10
2022-12-28T07:19:08.560Z,2.10
2022-12-28T07:21:38.739Z,2.10
2022-12-28T07:24:08.169Z,2.10
2022-12-28T07:26:38.154Z,2.10
2022-12-28T07:29:07.642Z,2.10
2022-12-28T07:31:44.689Z,2.20
2022-12-28T07:34:14.569Z,2.20
2022-12-28T07:36:46.848Z,2.30
2022-12-28T07:39:18.694Z,2.30
2022-12-28T07:41:46.636Z,2.40
2022-12-28T07:44:14.905Z,2.50
2022-12-28T07:46:43.150Z,2.50
2022-12-28T07:49:11.251Z,2.60
2022-12-28T07:51:40.020Z,2.70
2022-12-28T07:54:08.511Z,2.80
2022-12-28T07:59:05.744Z,2.90
2022-12-28T08:01:34.941Z,2.90
2022-12-28T08:04:05.786Z,3.00
2022-12-28T08:06:36.945Z,3.00
2022-12-28T08:09:06.518Z,3.00
2022-12-28T08:11:36.603Z,3.10
2022-12-28T08:14:05.506Z,3.10
2022-12-28T08:16:36.733Z,3.20
2022-12-28T08:19:04.930Z,3.30
2022-12-28T08:21:45.557Z,3.30
2022-12-28T08:24:19.059Z,3.40
2022-12-28T08:26:48.977Z,3.40
2022-12-28T08:29:20.502Z,3.50
2022-12-28T08:31:48.879Z,3.50
2022-12-28T08:34:28.061Z,3.60
2022-12-28T08:36:57.199Z,3.60
2022-12-28T08:39:25.313Z,3.60
2022-12-28T08:41:53.315Z,3.70
2022-12-28T08:44:21.356Z,3.70
2022-12-28T08:46:49.562Z,3.80
2022-12-28T08:49:17.689Z,3.80
2022-12-28T08:51:45.866Z,3.90
2022-12-28T08:54:15.103Z,4.00
2022-12-28T08:56:45.128Z,4.10
2022-12-28T08:59:18.595Z,4.10
2022-12-28T09:01:47.927Z,4.20
2022-12-28T09:04:22.645Z,4.30
2022-12-28T09:06:51.184Z,4.40
2022-12-28T09:09:23.256Z,4.50
2022-12-28T09:11:51.331Z,4.60
2022-12-28T09:14:23.832Z,4.60
2022-12-28T09:16:55.631Z,4.70
2022-12-28T09:19:24.351Z,4.70
2022-12-28T09:21:54.143Z,4.90
2022-12-28T09:24:25.376Z,4.90
2022-12-28T09:26:55.648Z,5.00
2022-12-28T09:29:23.740Z,5.10
2022-12-28T09:31:54.359Z,5.10
2022-12-28T09:34:35.689Z,5.20
2022-12-28T09:37:04.937Z,5.40
2022-12-28T09:39:33.057Z,5.40
2022-12-28T09:42:05.814Z,5.50
2022-12-28T09:45:12.945Z,5.60
2022-12-28T09:47:58.671Z,5.70
2022-12-28T09:50:36.585Z,5.90
2022-12-28T09:53:16.840Z,5.90
2022-12-28T09:55:55.342Z,6.00
2022-12-28T09:58:24.014Z,6.10
2022-12-28T10:00:58.194Z,6.10
2022-12-28T10:03:34.707Z,6.20
2022-12-28T10:06:04.345Z,6.20
2022-12-28T10:08:32.561Z,6.20
2022-12-28T10:11:03.004Z,6.20
2022-12-28T10:13:54.480Z,6.20
2022-12-28T10:16:24.486Z,6.30
2022-12-28T10:18:52.913Z,6.30
2022-12-28T10:21:30.101Z,6.30
2022-12-28T10:24:30.313Z,6.30
2022-12-28T10:26:49.689Z,6.30
2022-12-28T10:29:23.387Z,6.40
2022-12-28T10:32:06.440Z,6.40
2022-12-28T10:34:36.537Z,6.50
2022-12-28T10:37:16.872Z,6.50
2022-12-28T10:40:04.870Z,6.50
2022-12-28T10:42:45.143Z,6.60
2022-12-28T10:45:46.955Z,6.80
2022-12-28T10:48:19.662Z,7.00
2022-12-28T10:51:01.939Z,7.10
2022-12-28T10:53:52.492Z,7.20
2022-12-28T10:56:34.381Z,7.30
2022-12-28T10:59:14.495Z,7.40
2022-12-28T11:01:44.136Z,7.40
2022-12-28T11:04:22.038Z,7.40
2022-12-28T11:07:02.261Z,7.50
2022-12-28T11:09:32.452Z,7.50
2022-12-28T11:12:27.675Z,7.60
2022-12-28T11:14:57.379Z,7.70
2022-12-28T11:17:28.500Z,7.80
2022-12-28T11:20:15.517Z,7.90
2022-12-28T11:22:46.063Z,8.00
2022-12-28T11:25:19.823Z,8.10
2022-12-28T11:27:48.969Z,8.10
2022-12-28T11:30:19.064Z,8.20
2022-12-28T11:32:55.683Z,8.30
2022-12-28T11:35:36.256Z,8.30
2022-12-28T11:38:08.078Z,8.40
2022-12-28T11:40:45.425Z,8.40
2022-12-28T11:43:31.639Z,8.40
2022-12-28T11:46:01.713Z,8.40
2022-12-28T11:48:45.072Z,8.40
2022-12-28T11:51:21.395Z,8.30
2022-12-28T11:53:50.812Z,8.30
2022-12-28T11:56:21.196Z,8.30
2022-12-28T11:59:03.076Z,8.30
2022-12-28T12:01:31.142Z,8.30
2022-12-28T12:03:59.307Z,8.30
2022-12-28T12:06:46.126Z,8.30
2022-12-28T12:09:23.454Z,8.20
2022-12-28T12:11:58.643Z,8.20
2022-12-28T12:14:43.519Z,8.20
2022-12-28T12:17:42.829Z,8.30
2022-12-28T12:20:24.910Z,8.30
2022-12-28T12:22:59.424Z,8.30
2022-12-28T12:25:40.308Z,8.30
2022-12-28T12:28:31.693Z,8.30
2022-12-28T12:31:02.265Z,8.30
2022-12-28T12:33:41.560Z,8.30
2022-12-28T12:36:41.868Z,8.20
2022-12-28T12:39:26.694Z,8.20
2022-12-28T12:42:17.728Z,8.10
2022-12-28T12:45:16.406Z,8.10
2022-12-28T12:48:23.376Z,8.10
2022-12-28T12:51:27.804Z,8.10
2022-12-28T12:54:10.840Z,8.10
2022-12-28T12:56:56.443Z,8.20
2022-12-28T12:59:43.205Z,8.30
2022-12-28T13:02:42.327Z,8.30
2022-12-28T13:05:26.406Z,8.40
2022-12-28T13:07:57.697Z,8.50
2022-12-28T13:10:39.014Z,8.60
2022-12-28T13:13:07.292Z,8.70
2022-12-28T13:15:35.904Z,8.80
2022-12-28T13:18:44.101Z,8.90
2022-12-28T13:21:12.571Z,9.00
2022-12-28T13:23:46.071Z,9.10
2022-12-28T13:26:16.627Z,9.10
2022-12-28T13:28:59.541Z,9.10
2022-12-28T13:31:41.300Z,9.10
2022-12-28T13:34:26.852Z,9.10
2022-12-28T13:37:15.427Z,9.00
2022-12-28T13:39:43.557Z,9.00
2022-12-28T13:42:27.954Z,8.90
2022-12-28T13:45:00.377Z,8.70
2022-12-28T13:47:34.849Z,8.60
2022-12-28T13:50:16.763Z,8.60
2022-12-28T13:52:54.762Z,8.50
2022-12-28T13:55:40.230Z,8.50
2022-12-28T13:58:37.648Z,8.50
2022-12-28T14:01:11.002Z,8.50
2022-12-28T14:03:44.601Z,8.40
2022-12-28T14:06:21.281Z,8.40
2022-12-28T14:08:52.952Z,8.40
2022-12-28T14:11:21.836Z,8.30
2022-12-28T14:13:50.353Z,8.30
2022-12-28T14:16:19.411Z,8.30
2022-12-28T14:18:48.273Z,8.30
2022-12-28T14:21:16.488Z,8.30
2022-12-28T14:23:44.807Z,8.30
2022-12-28T14:26:21.769Z,8.30
2022-12-28T14:28:55.773Z,8.20
2022-12-28T14:31:33.383Z,8.20
2022-12-28T14:34:04.569Z,8.20
2022-12-28T14:36:44.352Z,8.20
2022-12-28T14:39:31.506Z,8.20
2022-12-28T14:42:00.858Z,8.20
2022-12-28T14:44:34.435Z,8.20
2022-12-28T14:47:02.502Z,8.20
2022-12-28T14:49:30.482Z,8.20
2022-12-28T14:52:18.994Z,8.20
2022-12-28T14:54:54.261Z,8.20
2022-12-28T14:57:31.156Z,8.10
2022-12-28T15:00:09.531Z,8.10
2022-12-28T15:02:41.054Z,8.10
2022-12-28T15:05:37.360Z,8.10
2022-12-28T15:08:05.821Z,8.10
2022-12-28T15:10:38.126Z,8.10
2022-12-28T15:13:06.225Z,8.10
2022-12-28T15:15:34.604Z,8.10
2022-12-28T15:18:02.610Z,8.10
2022-12-28T15:20:30.741Z,8.10
2022-12-28T15:22:58.846Z,8.10
2022-12-28T15:25:26.926Z,8.10
2022-12-28T15:27:55.342Z,8.00
2022-12-28T15:30:28.771Z,8.00
2022-12-28T15:32:57.662Z,8.00
2022-12-28T15:35:26.470Z,8.00
2022-12-28T15:37:54.509Z,7.90
2022-12-28T15:40:22.846Z,8.00
2022-12-28T15:42:51.837Z,7.90
2022-12-28T15:45:20.716Z,7.90
2022-12-28T15:47:48.965Z,7.90
2022-12-28T15:50:17.119Z,7.80
2022-12-28T15:52:48.049Z,7.80
2022-12-28T15:55:19.265Z,7.80
2022-12-28T15:57:53.796Z,7.80
2022-12-28T16:00:22.659Z,7.80
2022-12-28T16:02:50.927Z,7.70
2022-12-28T16:05:19.300Z,7.70
2022-12-28T16:07:50.583Z,7.70
2022-12-28T16:10:20.050Z,7.70
2022-12-28T16:12:48.138Z,7.80
2022-12-28T16:15:16.486Z,8.10
2022-12-28T16:17:53.297Z,8.00
2022-12-28T16:20:24.948Z,7.90
2022-12-28T16:22:54.838Z,7.80
2022-12-28T16:25:22.785Z,7.70
2022-12-28T16:27:51.020Z,7.70
2022-12-28T16:30:19.087Z,7.70
2022-12-28T16:32:49.170Z,7.70
2022-12-28T16:35:17.580Z,7.70
2022-12-28T16:37:45.465Z,7.70
2022-12-28T16:40:16.129Z,7.70
2022-12-28T16:42:46.838Z,7.60
2022-12-28T16:45:14.954Z,7.60
2022-12-28T16:47:45.113Z,7.60
2022-12-28T16:50:13.542Z,7.50
2022-12-28T16:52:41.664Z,7.60
2022-12-28T16:55:09.812Z,7.50
2022-12-28T16:57:37.725Z,7.50
2022-12-28T17:00:06.195Z,7.40
2022-12-28T17:02:34.343Z,7.40
2022-12-28T17:05:02.559Z,7.30
2022-12-28T17:07:30.600Z,7.30
2022-12-28T17:10:06.707Z,7.20
2022-12-28T17:12:35.155Z,7.20
2022-12-28T17:15:06.996Z,7.10
2022-12-28T17:17:35.872Z,7.00
2022-12-28T17:20:04.028Z,6.90
2022-12-28T17:22:32.159Z,6.80
2022-12-28T17:25:00.405Z,6.80
2022-12-28T17:27:28.867Z,6.70
2022-12-28T17:29:57.412Z,6.70
2022-12-28T17:32:25.437Z,6.60
2022-12-28T17:34:53.729Z,6.60
2022-12-28T17:37:21.696Z,6.50
2022-12-28T17:39:49.927Z,6.50
2022-12-28T17:42:17.935Z,6.40
2022-12-28T17:44:47.103Z,6.40
2022-12-28T17:47:15.199Z,6.40
2022-12-28T17:49:43.585Z,6.40
2022-12-28T17:52:12.545Z,6.30
2022-12-28T17:54:40.420Z,6.30
2022-12-28T17:57:08.392Z,6.30
2022-12-28T17:59:36.388Z,6.20
2022-12-28T18:02:06.175Z,6.20
2022-12-28T18:04:34.908Z,6.20
2022-12-28T18:07:02.821Z,6.10
2022-12-28T18:09:30.770Z,6.10
2022-12-28T18:11:58.753Z,6.10
2022-12-28T18:14:27.715Z,6.00
2022-12-28T18:16:56.389Z,6.00
2022-12-28T18:19:24.404Z,6.00
2022-12-28T18:21:52.391Z,6.00
2022-12-28T18:24:21.917Z,5.90
2022-12-28T18:26:49.878Z,5.90
2022-12-28T18:29:17.822Z,5.90
2022-12-28T18:31:45.989Z,5.90
2022-12-28T18:34:14.000Z,5.90
2022-12-28T18:36:41.988Z,5.80
2022-12-28T18:39:10.783Z,5.90
2022-12-28T18:41:38.814Z,5.90
2022-12-28T18:44:07.703Z,5.90
2022-12-28T18:46:36.346Z,5.90
2022-12-28T18:49:04.784Z,5.90
2022-12-28T18:51:34.859Z,5.90
2022-12-28T18:54:03.506Z,5.90
2022-12-28T18:56:34.105Z,5.80
2022-12-28T18:59:06.627Z,5.80
2022-12-28T19:04:32.185Z,5.70
2022-12-28T19:07:05.193Z,5.60
2022-12-28T19:09:36.468Z,5.60
2022-12-28T19:12:04.944Z,5.60
2022-12-28T19:14:41.438Z,5.50
2022-12-28T19:17:19.046Z,5.60
2022-12-28T19:19:55.453Z,5.50
2022-12-28T19:25:08.181Z,5.40
2022-12-28T19:27:36.894Z,5.40
2022-12-28T19:30:09.438Z,5.40
2022-12-28T19:32:37.978Z,5.40
2022-12-28T19:35:06.555Z,5.40
2022-12-28T19:37:35.689Z,5.40
2022-12-28T19:40:06.998Z,5.40
2022-12-28T19:42:41.101Z,5.40
2022-12-28T19:45:10.455Z,5.40
2022-12-28T19:47:44.564Z,5.40
2022-12-28T19:50:16.115Z,5.40
2022-12-28T19:52:46.798Z,5.50
2022-12-28T19:55:15.995Z,5.50
2022-12-28T19:57:45.785Z,5.50
2022-12-28T20:00:16.244Z,5.50
2022-12-28T20:05:31.548Z,5.60
2022-12-28T20:08:00.135Z,5.60
2022-12-28T20:10:33.841Z,5.60
2022-12-28T20:13:02.449Z,5.60
2022-12-28T20:15:30.589Z,5.60
2022-12-28T20:17:58.769Z,5.60
2022-12-28T20:20:46.028Z,5.50
2022-12-28T20:23:21.498Z,5.50
2022-12-28T20:25:53.853Z,5.50
2022-12-28T20:28:23.124Z,5.50
2022-12-28T20:30:53.487Z,5.50
2022-12-28T20:33:24.870Z,5.40
2022-12-28T20:36:09.094Z,5.40
2022-12-28T20:38:38.155Z,5.40
2022-12-28T20:41:34.927Z,5.30
2022-12-28T20:44:11.758Z,5.30
2022-12-28T20:46:41.324Z,5.30
2022-12-28T20:49:11.878Z,5.30
2022-12-28T20:51:40.506Z,5.30
2022-12-28T20:54:13.315Z,5.30
2022-12-28T20:56:55.092Z,5.30
2022-12-28T20:59:27.396Z,5.20
2022-12-28T21:01:59.241Z,5.30
2022-12-28T21:04:29.347Z,5.20
2022-12-28T21:06:59.347Z,5.20
2022-12-28T21:09:28.067Z,5.20
2022-12-28T21:11:57.556Z,5.10
2022-12-28T21:14:26.246Z,5.10
2022-12-28T21:16:54.863Z,5.10
2022-12-28T21:19:26.284Z,5.10
2022-12-28T21:21:54.660Z,5.10
2022-12-28T21:24:22.853Z,5.10
2022-12-28T21:26:50.978Z,5.10
2022-12-28T21:29:25.968Z,5.10
2022-12-28T21:31:57.512Z,5.10
2022-12-28T21:34:39.177Z,5.10
2022-12-28T21:37:41.508Z,5.10
2022-12-28T21:40:21.145Z,5.10
2022-12-28T21:42:52.631Z,5.00
2022-12-28T21:45:31.713Z,5.00
2022-12-28T21:51:36.360Z,5.00
2022-12-28T21:57:03.644Z,4.90
2022-12-28T21:59:33.832Z,4.90
2022-12-28T22:02:20.395Z,4.90
2022-12-28T22:05:07.082Z,4.90
2022-12-28T22:07:36.183Z,5.00
2022-12-28T22:10:22.558Z,5.00
2022-12-28T22:12:50.578Z,5.00
2022-12-28T22:15:39.457Z,5.10
2022-12-28T22:18:15.769Z,5.10
2022-12-28T22:20:58.343Z,5.20
2022-12-28T22:23:31.097Z,5.20
2022-12-28T22:26:02.252Z,5.30
2022-12-28T22:28:30.155Z,5.20
2022-12-28T22:31:00.055Z,5.30
2022-12-28T22:33:30.886Z,5.30
2022-12-28T22:35:58.870Z,5.40
2022-12-28T22:38:28.497Z,5.50
2022-12-28T22:41:00.301Z,5.60
2022-12-28T22:43:28.397Z,5.60
2022-12-28T22:46:10.700Z,5.70
2022-12-28T22:48:39.166Z,5.80
2022-12-28T22:51:13.612Z,5.90
2022-12-28T22:53:42.023Z,5.90
2022-12-28T22:56:20.780Z,6.00
2022-12-28T22:58:49.591Z,6.00
2022-12-28T23:01:19.991Z,6.00
2022-12-28T23:03:49.247Z,6.10
2022-12-28T23:06:22.433Z,6.10
2022-12-28T23:08:50.490Z,6.20
2022-12-28T23:11:37.979Z,6.10
2022-12-28T23:14:27.911Z,6.20
2022-12-28T23:16:56.823Z,6.20
2022-12-28T23:19:43.942Z,6.20
2022-12-28T23:22:34.988Z,6.30
2022-12-28T23:25:22.141Z,6.30
2022-12-28T23:27:52.054Z,6.30
2022-12-28T23:30:22.845Z,6.30
2022-12-28T23:32:54.187Z,6.40
2022-12-28T23:35:24.531Z,6.40
2022-12-28T23:37:53.216Z,6.50
2022-12-28T23:40:25.401Z,6.50
2022-12-28T23:42:55.376Z,6.50
2022-12-28T23:45:23.892Z,6.50
2022-12-28T23:47:54.661Z,6.50
2022-12-28T23:50:22.833Z,6.50
2022-12-28T23:52:50.796Z,6.50
2022-12-28T23:55:18.872Z,6.60
2022-12-28T23:57:46.766Z,6.60
